Cuijk, Netherlands
Current Conditions -  °F | °C
As of 7:25 PM on Friday 28 Nov 2014 (Local Time) from EHVK Reporting Station
Haze Haze  
Wind Chill: 35°   Ceiling: 9900
Heat Index: 43°   Visibility: 5mi
Dew Point: 39°   Wind: 15mph
Humidity: 87%   Direction: 80°E
Pressure: 29.83"   Gusts: NA
Location:  51.73°N, 5.88°E
Report Text: EHVK 281825Z AUTO 08013KT 8000 BR OVC099 06/04 Q1010 BLU
Loading
Personal Weather Stations






























Interactive Weather Map New forecast layout! Learn more

10-Day Weather Forecast

Advertisements
Track Severe Weather on mobile